sensor_id;sensor_type;location;lat;lon;timestamp;pressure;altitude;pressure_sealevel;temperature;humidity
61086;BME280;46967;48.876;2.136;2024-01-30T00:01:38;102464.84;;;37.03;15.69
61086;BME280;46967;48.876;2.136;2024-01-30T00:04:03;102470.63;;;37.23;15.37
61086;BME280;46967;48.876;2.136;2024-01-30T00:06:29;102469.53;;;37.09;15.41
61086;BME280;46967;48.876;2.136;2024-01-30T00:08:54;102464.19;;;37.01;15.79
61086;BME280;46967;48.876;2.136;2024-01-30T00:11:19;102458.78;;;37.01;15.83
61086;BME280;46967;48.876;2.136;2024-01-30T00:13:46;102477.19;;;37.20;15.60
61086;BME280;46967;48.876;2.136;2024-01-30T00:16:24;102473.41;;;37.29;15.49
61086;BME280;46967;48.876;2.136;2024-01-30T00:18:52;102484.16;;;37.38;15.36
61086;BME280;46967;48.876;2.136;2024-01-30T00:21:19;102474.97;;;37.24;15.57
61086;BME280;46967;48.876;2.136;2024-01-30T00:23:44;102472.09;;;37.25;15.55
61086;BME280;46967;48.876;2.136;2024-01-30T00:26:09;102478.72;;;37.23;15.70
61086;BME280;46967;48.876;2.136;2024-01-30T00:28:35;102478.03;;;37.21;15.73
61086;BME280;46967;48.876;2.136;2024-01-30T00:31:00;102477.75;;;37.15;15.80
61086;BME280;46967;48.876;2.136;2024-01-30T00:33:26;102481.53;;;37.29;16.04
61086;BME280;46967;48.876;2.136;2024-01-30T00:35:51;102484.81;;;37.40;15.38
61086;BME280;46967;48.876;2.136;2024-01-30T00:38:16;102487.44;;;37.48;15.48
61086;BME280;46967;48.876;2.136;2024-01-30T00:40:41;102489.84;;;37.43;15.70
61086;BME280;46967;48.876;2.136;2024-01-30T00:43:07;102486.88;;;37.52;15.51
61086;BME280;46967;48.876;2.136;2024-01-30T00:45:32;102486.81;;;37.61;15.51
61086;BME280;46967;48.876;2.136;2024-01-30T00:47:58;102487.09;;;37.66;15.44
61086;BME280;46967;48.876;2.136;2024-01-30T00:50:23;102490.09;;;37.71;15.37
61086;BME280;46967;48.876;2.136;2024-01-30T00:52:48;102485.63;;;37.78;15.31
61086;BME280;46967;48.876;2.136;2024-01-30T00:55:13;102490.19;;;37.78;15.53
61086;BME280;46967;48.876;2.136;2024-01-30T00:57:39;102488.63;;;37.83;15.37
61086;BME280;46967;48.876;2.136;2024-01-30T01:00:05;102484.16;;;37.52;15.72
61086;BME280;46967;48.876;2.136;2024-01-30T01:02:36;102492.34;;;37.82;15.31
61086;BME280;46967;48.876;2.136;2024-01-30T01:05:02;102488.53;;;37.77;15.41
61086;BME280;46967;48.876;2.136;2024-01-30T01:07:27;102486.63;;;37.92;15.52
61086;BME280;46967;48.876;2.136;2024-01-30T01:09:53;102484.88;;;37.99;15.14
61086;BME280;46967;48.876;2.136;2024-01-30T01:12:18;102485.50;;;38.01;15.24
61086;BME280;46967;48.876;2.136;2024-01-30T01:14:43;102483.16;;;37.98;15.31
61086;BME280;46967;48.876;2.136;2024-01-30T01:17:09;102475.00;;;37.77;15.60
61086;BME280;46967;48.876;2.136;2024-01-30T01:19:34;102476.63;;;38.08;15.49
61086;BME280;46967;48.876;2.136;2024-01-30T01:21:59;102479.59;;;38.13;15.27
61086;BME280;46967;48.876;2.136;2024-01-30T01:24:25;102472.41;;;38.05;15.46
61086;BME280;46967;48.876;2.136;2024-01-30T01:26:50;102467.19;;;38.03;15.53
61086;BME280;46967;48.876;2.136;2024-01-30T01:29:15;102472.78;;;38.02;15.33
61086;BME280;46967;48.876;2.136;2024-01-30T01:31:41;102467.38;;;38.02;15.21
61086;BME280;46967;48.876;2.136;2024-01-30T01:34:12;102469.91;;;38.03;15.33
61086;BME280;46967;48.876;2.136;2024-01-30T01:36:39;102468.94;;;38.11;15.19
61086;BME280;46967;48.876;2.136;2024-01-30T01:39:04;102472.78;;;38.02;15.41
61086;BME280;46967;48.876;2.136;2024-01-30T01:41:30;102468.22;;;38.02;15.17
61086;BME280;46967;48.876;2.136;2024-01-30T01:43:57;102468.41;;;38.01;15.73
61086;BME280;46967;48.876;2.136;2024-01-30T01:46:22;102471.78;;;38.03;15.53
61086;BME280;46967;48.876;2.136;2024-01-30T01:48:48;102467.41;;;37.87;15.59
61086;BME280;46967;48.876;2.136;2024-01-30T01:51:14;102475.78;;;37.92;15.59
61086;BME280;46967;48.876;2.136;2024-01-30T01:53:39;102487.19;;;37.87;15.73
61086;BME280;46967;48.876;2.136;2024-01-30T01:56:05;102470.50;;;37.99;15.38
61086;BME280;46967;48.876;2.136;2024-01-30T01:58:31;102478.03;;;38.03;15.46
61086;BME280;46967;48.876;2.136;2024-01-30T02:00:57;102473.38;;;37.82;15.69
61086;BME280;46967;48.876;2.136;2024-01-30T02:03:23;102466.34;;;38.03;15.57
61086;BME280;46967;48.876;2.136;2024-01-30T02:05:50;102461.50;;;38.13;15.29
61086;BME280;46967;48.876;2.136;2024-01-30T02:08:16;102473.47;;;38.04;15.42
61086;BME280;46967;48.876;2.136;2024-01-30T02:10:41;102475.78;;;37.92;15.54
61086;BME280;46967;48.876;2.136;2024-01-30T02:13:07;102474.78;;;37.93;15.59
61086;BME280;46967;48.876;2.136;2024-01-30T02:15:32;102465.63;;;37.94;15.48
61086;BME280;46967;48.876;2.136;2024-01-30T02:17:57;102465.44;;;37.81;16.01
61086;BME280;46967;48.876;2.136;2024-01-30T02:20:24;102455.53;;;38.03;15.33
61086;BME280;46967;48.876;2.136;2024-01-30T02:22:52;102462.69;;;38.11;15.43
61086;BME280;46967;48.876;2.136;2024-01-30T02:25:19;102463.09;;;37.78;15.90
61086;BME280;46967;48.876;2.136;2024-01-30T02:27:45;102469.53;;;37.92;15.65
61086;BME280;46967;48.876;2.136;2024-01-30T02:30:10;102464.59;;;37.95;15.58
61086;BME280;46967;48.876;2.136;2024-01-30T02:32:36;102457.84;;;38.06;15.67
61086;BME280;46967;48.876;2.136;2024-01-30T02:35:01;102462.03;;;38.23;15.39
61086;BME280;46967;48.876;2.136;2024-01-30T02:37:26;102461.41;;;38.21;15.15
61086;BME280;46967;48.876;2.136;2024-01-30T02:39:52;102469.72;;;38.20;15.53
61086;BME280;46967;48.876;2.136;2024-01-30T02:42:17;102471.19;;;38.22;15.23
61086;BME280;46967;48.876;2.136;2024-01-30T02:44:42;102473.72;;;38.09;15.53
61086;BME280;46967;48.876;2.136;2024-01-30T02:47:08;102468.31;;;38.09;15.32
61086;BME280;46967;48.876;2.136;2024-01-30T02:49:33;102462.19;;;37.85;15.75
61086;BME280;46967;48.876;2.136;2024-01-30T02:51:58;102454.44;;;37.97;15.31
61086;BME280;46967;48.876;2.136;2024-01-30T02:54:24;102449.91;;;38.04;15.42
61086;BME280;46967;48.876;2.136;2024-01-30T02:56:49;102447.84;;;38.06;15.23
61086;BME280;46967;48.876;2.136;2024-01-30T02:59:14;102451.31;;;38.00;15.27
61086;BME280;46967;48.876;2.136;2024-01-30T03:01:43;102464.97;;;38.07;15.45
61086;BME280;46967;48.876;2.136;2024-01-30T03:04:09;102465.97;;;38.06;15.44
61086;BME280;46967;48.876;2.136;2024-01-30T03:06:34;102460.03;;;37.96;15.35
61086;BME280;46967;48.876;2.136;2024-01-30T03:09:00;102453.91;;;36.73;16.80
61086;BME280;46967;48.876;2.136;2024-01-30T03:11:25;102454.06;;;37.70;15.75
61086;BME280;46967;48.876;2.136;2024-01-30T03:13:50;102456.44;;;37.36;16.02
61086;BME280;46967;48.876;2.136;2024-01-30T03:16:16;102441.22;;;37.34;16.08
61086;BME280;46967;48.876;2.136;2024-01-30T03:18:42;102449.94;;;37.75;15.60
61086;BME280;46967;48.876;2.136;2024-01-30T03:21:07;102458.47;;;37.33;16.07
61086;BME280;46967;48.876;2.136;2024-01-30T03:23:32;102456.34;;;37.59;15.93
61086;BME280;46967;48.876;2.136;2024-01-30T03:25:58;102463.66;;;37.58;16.01
61086;BME280;46967;48.876;2.136;2024-01-30T03:28:23;102457.31;;;37.81;15.66
61086;BME280;46967;48.876;2.136;2024-01-30T03:30:48;102460.75;;;37.60;15.84
61086;BME280;46967;48.876;2.136;2024-01-30T03:33:14;102464.03;;;37.70;15.81
61086;BME280;46967;48.876;2.136;2024-01-30T03:35:39;102465.91;;;37.84;15.58
61086;BME280;46967;48.876;2.136;2024-01-30T03:38:04;102470.25;;;36.79;16.45
61086;BME280;46967;48.876;2.136;2024-01-30T03:40:29;102468.28;;;37.49;16.08
61086;BME280;46967;48.876;2.136;2024-01-30T03:42:55;102465.91;;;37.84;15.66
61086;BME280;46967;48.876;2.136;2024-01-30T03:45:20;102452.34;;;37.40;16.54
61086;BME280;46967;48.876;2.136;2024-01-30T03:47:45;102457.22;;;37.59;16.05
61086;BME280;46967;48.876;2.136;2024-01-30T03:50:11;102453.56;;;37.67;15.83
61086;BME280;46967;48.876;2.136;2024-01-30T03:52:36;102446.94;;;37.84;15.76
61086;BME280;46967;48.876;2.136;2024-01-30T03:55:01;102447.63;;;37.86;15.73
61086;BME280;46967;48.876;2.136;2024-01-30T03:57:27;102456.13;;;37.83;15.78
61086;BME280;46967;48.876;2.136;2024-01-30T03:59:52;102454.03;;;37.85;15.54
61086;BME280;46967;48.876;2.136;2024-01-30T04:02:18;102453.47;;;37.45;15.98
61086;BME280;46967;48.876;2.136;2024-01-30T04:04:43;102447.13;;;37.53;15.89
61086;BME280;46967;48.876;2.136;2024-01-30T04:07:09;102447.41;;;37.73;15.58
61086;BME280;46967;48.876;2.136;2024-01-30T04:09:34;102449.75;;;37.76;15.94
61086;BME280;46967;48.876;2.136;2024-01-30T04:11:59;102444.16;;;37.93;15.67
61086;BME280;46967;48.876;2.136;2024-01-30T04:14:25;102447.50;;;37.50;16.38
61086;BME280;46967;48.876;2.136;2024-01-30T04:16:50;102437.06;;;37.77;15.91
61086;BME280;46967;48.876;2.136;2024-01-30T04:19:15;102447.44;;;37.88;15.72
61086;BME280;46967;48.876;2.136;2024-01-30T04:21:41;102443.69;;;37.74;15.76
61086;BME280;46967;48.876;2.136;2024-01-30T04:24:06;102435.25;;;37.54;15.92
61086;BME280;46967;48.876;2.136;2024-01-30T04:26:31;102426.97;;;36.56;16.95
61086;BME280;46967;48.876;2.136;2024-01-30T04:28:57;102432.56;;;37.54;16.17
61086;BME280;46967;48.876;2.136;2024-01-30T04:31:22;102430.34;;;37.73;16.00
61086;BME280;46967;48.876;2.136;2024-01-30T04:33:47;102435.56;;;37.74;15.96
61086;BME280;46967;48.876;2.136;2024-01-30T04:36:13;102442.91;;;37.65;15.98
61086;BME280;46967;48.876;2.136;2024-01-30T04:38:38;102442.38;;;37.70;16.21
61086;BME280;46967;48.876;2.136;2024-01-30T04:41:04;102439.78;;;37.77;15.92
61086;BME280;46967;48.876;2.136;2024-01-30T04:43:29;102440.28;;;38.02;15.69
61086;BME280;46967;48.876;2.136;2024-01-30T04:45:55;102437.50;;;37.50;16.38
61086;BME280;46967;48.876;2.136;2024-01-30T04:48:21;102442.31;;;37.78;16.09
61086;BME280;46967;48.876;2.136;2024-01-30T04:50:46;102442.28;;;37.48;16.14
61086;BME280;46967;48.876;2.136;2024-01-30T04:53:11;102440.31;;;37.87;15.86
61086;BME280;46967;48.876;2.136;2024-01-30T04:55:37;102445.09;;;37.85;15.82
61086;BME280;46967;48.876;2.136;2024-01-30T04:58:02;102446.97;;;37.16;16.57
61086;BME280;46967;48.876;2.136;2024-01-30T05:00:27;102448.56;;;37.79;15.88
61086;BME280;46967;48.876;2.136;2024-01-30T05:02:55;102456.94;;;37.84;16.02
61086;BME280;46967;48.876;2.136;2024-01-30T05:05:20;102460.78;;;37.75;15.76
61086;BME280;46967;48.876;2.136;2024-01-30T05:07:46;102460.78;;;37.75;15.95
61086;BME280;46967;48.876;2.136;2024-01-30T05:10:12;102469.25;;;37.42;16.33
61086;BME280;46967;48.876;2.136;2024-01-30T05:12:38;102479.16;;;37.79;15.82
61086;BME280;46967;48.876;2.136;2024-01-30T05:15:04;102473.91;;;37.63;16.08
61086;BME280;46967;48.876;2.136;2024-01-30T05:17:29;102483.19;;;37.83;15.87
61086;BME280;46967;48.876;2.136;2024-01-30T05:19:55;102485.72;;;37.32;16.31
61086;BME280;46967;48.876;2.136;2024-01-30T05:22:20;102485.16;;;37.90;15.73
61086;BME280;46967;48.876;2.136;2024-01-30T05:24:45;102487.53;;;37.16;16.36
61086;BME280;46967;48.876;2.136;2024-01-30T05:27:11;102497.88;;;37.51;16.23
61086;BME280;46967;48.876;2.136;2024-01-30T05:29:38;102494.59;;;37.79;15.84
61086;BME280;46967;48.876;2.136;2024-01-30T05:32:04;102484.47;;;37.58;16.13
61086;BME280;46967;48.876;2.136;2024-01-30T05:34:30;102505.81;;;37.14;16.42
61086;BME280;46967;48.876;2.136;2024-01-30T05:36:56;102505.69;;;37.08;16.53
61086;BME280;46967;48.876;2.136;2024-01-30T05:39:21;102502.22;;;38.05;15.51
61086;BME280;46967;48.876;2.136;2024-01-30T05:41:46;102504.75;;;38.21;15.52
61086;BME280;46967;48.876;2.136;2024-01-30T05:44:12;102507.69;;;38.41;15.35
61086;BME280;46967;48.876;2.136;2024-01-30T05:46:37;102513.34;;;38.10;15.55
61086;BME280;46967;48.876;2.136;2024-01-30T05:49:02;102519.88;;;37.86;15.79
61086;BME280;46967;48.876;2.136;2024-01-30T05:51:29;102525.41;;;37.93;15.77
61086;BME280;46967;48.876;2.136;2024-01-30T05:53:54;102523.47;;;37.48;16.44
61086;BME280;46967;48.876;2.136;2024-01-30T05:56:19;102533.34;;;38.09;15.42
61086;BME280;46967;48.876;2.136;2024-01-30T05:58:45;102539.59;;;37.80;15.82
61086;BME280;46967;48.876;2.136;2024-01-30T06:01:10;102530.53;;;38.02;15.78
61086;BME280;46967;48.876;2.136;2024-01-30T06:03:35;102529.00;;;38.45;15.25
61086;BME280;46967;48.876;2.136;2024-01-30T06:06:01;102535.97;;;38.32;15.35
61086;BME280;46967;48.876;2.136;2024-01-30T06:08:26;102540.72;;;38.30;15.25
61086;BME280;46967;48.876;2.136;2024-01-30T06:10:52;102537.06;;;38.38;15.41
61086;BME280;46967;48.876;2.136;2024-01-30T06:13:17;102538.47;;;38.19;15.09
61086;BME280;46967;48.876;2.136;2024-01-30T06:15:42;102540.63;;;37.94;16.04
61086;BME280;46967;48.876;2.136;2024-01-30T06:18:08;102541.84;;;38.21;15.40
61086;BME280;46967;48.876;2.136;2024-01-30T06:20:34;102547.53;;;38.11;15.49
61086;BME280;46967;48.876;2.136;2024-01-30T06:22:59;102546.97;;;38.01;15.70
61086;BME280;46967;48.876;2.136;2024-01-30T06:25:24;102546.69;;;38.11;15.67
61086;BME280;46967;48.876;2.136;2024-01-30T06:27:50;102553.28;;;38.16;15.59
61086;BME280;46967;48.876;2.136;2024-01-30T06:30:15;102562.69;;;38.20;15.51
61086;BME280;46967;48.876;2.136;2024-01-30T06:32:40;102568.28;;;38.04;15.74
61086;BME280;46967;48.876;2.136;2024-01-30T06:35:06;102565.22;;;38.22;15.45
61086;BME280;46967;48.876;2.136;2024-01-30T06:37:31;102556.59;;;38.33;15.45
61086;BME280;46967;48.876;2.136;2024-01-30T06:39:57;102563.94;;;38.18;15.68
61086;BME280;46967;48.876;2.136;2024-01-30T06:42:22;102565.97;;;38.16;15.73
61086;BME280;46967;48.876;2.136;2024-01-30T06:44:48;102561.44;;;38.08;15.95
61086;BME280;46967;48.876;2.136;2024-01-30T06:47:13;102562.50;;;38.22;15.52
61086;BME280;46967;48.876;2.136;2024-01-30T06:49:38;102565.22;;;38.22;15.64
61086;BME280;46967;48.876;2.136;2024-01-30T06:52:07;102563.06;;;38.32;15.77
61086;BME280;46967;48.876;2.136;2024-01-30T06:54:33;102572.47;;;38.36;15.68
61086;BME280;46967;48.876;2.136;2024-01-30T06:56:59;102567.66;;;37.17;16.79
61086;BME280;46967;48.876;2.136;2024-01-30T06:59:24;102573.66;;;37.74;16.23
61086;BME280;46967;48.876;2.136;2024-01-30T07:01:50;102573.97;;;38.09;15.35
61086;BME280;46967;48.876;2.136;2024-01-30T07:04:15;102580.41;;;37.78;16.42
61086;BME280;46967;48.876;2.136;2024-01-30T07:06:41;102579.56;;;38.08;15.77
61086;BME280;46967;48.876;2.136;2024-01-30T07:09:06;102581.66;;;38.20;15.76
61086;BME280;46967;48.876;2.136;2024-01-30T07:11:32;102587.72;;;38.22;15.64
61086;BME280;46967;48.876;2.136;2024-01-30T07:13:57;102592.78;;;38.40;15.47
61086;BME280;46967;48.876;2.136;2024-01-30T07:16:22;102591.84;;;38.48;15.44
61086;BME280;46967;48.876;2.136;2024-01-30T07:18:48;102586.00;;;38.66;15.50
61086;BME280;46967;48.876;2.136;2024-01-30T07:21:14;102595.81;;;38.52;15.47
61086;BME280;46967;48.876;2.136;2024-01-30T07:23:40;102604.44;;;38.41;15.57
61086;BME280;46967;48.876;2.136;2024-01-30T07:26:07;102603.31;;;38.50;15.40
61086;BME280;46967;48.876;2.136;2024-01-30T07:28:33;102609.41;;;38.67;15.23
61086;BME280;46967;48.876;2.136;2024-01-30T07:30:59;102615.66;;;38.38;15.67
61086;BME280;46967;48.876;2.136;2024-01-30T07:33:24;102627.91;;;38.49;15.67
61086;BME280;46967;48.876;2.136;2024-01-30T07:35:49;102627.16;;;38.55;15.58
61086;BME280;46967;48.876;2.136;2024-01-30T07:38:15;102631.00;;;38.46;15.38
61086;BME280;46967;48.876;2.136;2024-01-30T07:40:40;102629.59;;;38.20;15.75
61086;BME280;46967;48.876;2.136;2024-01-30T07:43:06;102630.63;;;38.49;15.53
61086;BME280;46967;48.876;2.136;2024-01-30T07:45:31;102637.72;;;38.65;15.60
61086;BME280;46967;48.876;2.136;2024-01-30T07:47:58;102634.91;;;38.73;15.28
61086;BME280;46967;48.876;2.136;2024-01-30T07:50:25;102645.75;;;38.73;15.38
61086;BME280;46967;48.876;2.136;2024-01-30T07:52:50;102640.69;;;38.85;15.14
61086;BME280;46967;48.876;2.136;2024-01-30T07:55:20;102642.44;;;39.07;14.80
61086;BME280;46967;48.876;2.136;2024-01-30T07:57:45;102643.16;;;39.01;15.30
61086;BME280;46967;48.876;2.136;2024-01-30T08:00:11;102650.22;;;38.81;15.27
61086;BME280;46967;48.876;2.136;2024-01-30T08:02:37;102652.75;;;38.82;15.54
61086;BME280;46967;48.876;2.136;2024-01-30T08:05:02;102659.09;;;38.89;15.13
61086;BME280;46967;48.876;2.136;2024-01-30T08:07:27;102665.88;;;38.64;15.69
61086;BME280;46967;48.876;2.136;2024-01-30T08:09:54;102667.44;;;38.88;15.46
61086;BME280;46967;48.876;2.136;2024-01-30T08:12:20;102671.34;;;38.85;15.49
61086;BME280;46967;48.876;2.136;2024-01-30T08:14:45;102671.81;;;38.89;15.46
61086;BME280;46967;48.876;2.136;2024-01-30T08:17:10;102679.38;;;38.93;15.40
61086;BME280;46967;48.876;2.136;2024-01-30T08:19:36;102678.38;;;38.80;15.54
61086;BME280;46967;48.876;2.136;2024-01-30T08:22:01;102681.63;;;38.90;15.65
61086;BME280;46967;48.876;2.136;2024-01-30T08:24:26;102679.06;;;39.03;15.49
61086;BME280;46967;48.876;2.136;2024-01-30T08:26:51;102682.09;;;39.08;15.40
61086;BME280;46967;48.876;2.136;2024-01-30T08:29:17;102689.00;;;39.11;15.25
61086;BME280;46967;48.876;2.136;2024-01-30T08:31:42;102687.53;;;39.08;15.14
61086;BME280;46967;48.876;2.136;2024-01-30T08:34:07;102696.19;;;39.19;15.26
61086;BME280;46967;48.876;2.136;2024-01-30T08:36:33;102698.19;;;39.10;15.16
61086;BME280;46967;48.876;2.136;2024-01-30T08:38:58;102698.19;;;39.10;15.35
61086;BME280;46967;48.876;2.136;2024-01-30T08:41:23;102701.47;;;38.90;15.50
61086;BME280;46967;48.876;2.136;2024-01-30T08:43:49;102704.28;;;38.82;15.26
61086;BME280;46967;48.876;2.136;2024-01-30T08:46:17;102714.66;;;38.93;15.42
61086;BME280;46967;48.876;2.136;2024-01-30T08:48:42;102711.19;;;39.00;15.31
61086;BME280;46967;48.876;2.136;2024-01-30T08:51:08;102721.75;;;39.09;15.06
61086;BME280;46967;48.876;2.136;2024-01-30T08:53:34;102721.81;;;39.16;15.54
61086;BME280;46967;48.876;2.136;2024-01-30T08:56:01;102723.72;;;39.16;15.25
61086;BME280;46967;48.876;2.136;2024-01-30T08:58:26;102723.44;;;39.10;15.39
61086;BME280;46967;48.876;2.136;2024-01-30T09:00:52;102735.69;;;39.21;15.12
61086;BME280;46967;48.876;2.136;2024-01-30T09:03:17;102740.81;;;39.16;15.12
61086;BME280;46967;48.876;2.136;2024-01-30T09:05:43;102744.50;;;39.08;15.26
61086;BME280;46967;48.876;2.136;2024-01-30T09:08:08;102738.22;;;38.48;15.90
61086;BME280;46967;48.876;2.136;2024-01-30T09:10:33;102738.50;;;38.98;15.33
61086;BME280;46967;48.876;2.136;2024-01-30T09:12:59;102739.94;;;38.64;15.79
61086;BME280;46967;48.876;2.136;2024-01-30T09:15:24;102745.41;;;38.03;16.20
61086;BME280;46967;48.876;2.136;2024-01-30T09:17:49;102750.09;;;38.47;16.09
61086;BME280;46967;48.876;2.136;2024-01-30T09:20:15;102744.47;;;38.49;15.86
61086;BME280;46967;48.876;2.136;2024-01-30T09:22:41;102754.69;;;37.54;16.83
61086;BME280;46967;48.876;2.136;2024-01-30T09:25:06;102756.56;;;37.85;16.32
61086;BME280;46967;48.876;2.136;2024-01-30T09:27:32;102758.28;;;37.78;16.55
61086;BME280;46967;48.876;2.136;2024-01-30T09:29:57;102759.44;;;37.83;16.34
61086;BME280;46967;48.876;2.136;2024-01-30T09:32:22;102762.03;;;37.06;17.09
61086;BME280;46967;48.876;2.136;2024-01-30T09:34:47;102767.44;;;38.00;16.11
61086;BME280;46967;48.876;2.136;2024-01-30T09:37:13;102768.50;;;38.14;16.29
61086;BME280;46967;48.876;2.136;2024-01-30T09:39:40;102773.47;;;38.48;15.69
61086;BME280;46967;48.876;2.136;2024-01-30T09:44:50;102768.97;;;38.55;15.63
61086;BME280;46967;48.876;2.136;2024-01-30T09:47:17;102777.56;;;38.29;15.84
61086;BME280;46967;48.876;2.136;2024-01-30T09:49:43;102775.63;;;38.53;15.69
61086;BME280;46967;48.876;2.136;2024-01-30T09:52:09;102775.78;;;37.36;16.84
61086;BME280;46967;48.876;2.136;2024-01-30T09:54:36;102783.28;;;36.44;17.60
61086;BME280;46967;48.876;2.136;2024-01-30T09:57:03;102785.47;;;36.66;17.22
61086;BME280;46967;48.876;2.136;2024-01-30T09:59:28;102789.84;;;36.09;17.83
61086;BME280;46967;48.876;2.136;2024-01-30T10:01:54;102793.41;;;36.67;17.22
61086;BME280;46967;48.876;2.136;2024-01-30T10:04:19;102783.28;;;37.25;16.47
61086;BME280;46967;48.876;2.136;2024-01-30T10:06:46;102787.56;;;37.03;16.70
61086;BME280;46967;48.876;2.136;2024-01-30T10:09:11;102789.50;;;36.86;17.07
61086;BME280;46967;48.876;2.136;2024-01-30T10:11:36;102796.50;;;37.12;16.74
61086;BME280;46967;48.876;2.136;2024-01-30T10:14:02;102803.44;;;37.06;16.81
61086;BME280;46967;48.876;2.136;2024-01-30T10:16:28;102795.22;;;37.39;16.56
61086;BME280;46967;48.876;2.136;2024-01-30T10:18:53;102801.75;;;37.05;16.76
61086;BME280;46967;48.876;2.136;2024-01-30T10:21:19;102799.06;;;36.97;16.83
61086;BME280;46967;48.876;2.136;2024-01-30T10:23:44;102805.56;;;37.36;16.45
61086;BME280;46967;48.876;2.136;2024-01-30T10:26:10;102814.69;;;36.54;16.94
61086;BME280;46967;48.876;2.136;2024-01-30T10:28:35;102817.06;;;35.57;17.98
61086;BME280;46967;48.876;2.136;2024-01-30T10:31:01;102813.84;;;36.20;17.27
61086;BME280;46967;48.876;2.136;2024-01-30T10:33:27;102818.69;;;36.91;16.77
61086;BME280;46967;48.876;2.136;2024-01-30T10:35:56;102820.25;;;36.03;17.57
61086;BME280;46967;48.876;2.136;2024-01-30T10:38:23;102820.00;;;37.11;16.48
61086;BME280;46967;48.876;2.136;2024-01-30T10:40:56;102820.25;;;35.52;17.95
61086;BME280;46967;48.876;2.136;2024-01-30T10:43:22;102832.75;;;36.78;16.76
61086;BME280;46967;48.876;2.136;2024-01-30T10:45:49;102830.75;;;36.47;16.95
61086;BME280;46967;48.876;2.136;2024-01-30T10:48:16;102841.56;;;35.63;17.82
61086;BME280;46967;48.876;2.136;2024-01-30T10:50:45;102848.50;;;33.14;19.61
61086;BME280;46967;48.876;2.136;2024-01-30T10:53:11;102850.84;;;30.76;22.02
61086;BME280;46967;48.876;2.136;2024-01-30T10:55:38;102850.16;;;33.15;19.30
61086;BME280;46967;48.876;2.136;2024-01-30T10:58:04;102850.25;;;34.16;18.24
61086;BME280;46967;48.876;2.136;2024-01-30T11:00:30;102854.06;;;34.41;17.83
61086;BME280;46967;48.876;2.136;2024-01-30T11:02:58;102863.34;;;33.08;19.12
61086;BME280;46967;48.876;2.136;2024-01-30T11:05:24;102862.72;;;32.86;19.26
61086;BME280;46967;48.876;2.136;2024-01-30T11:07:52;102858.56;;;33.87;18.20
61086;BME280;46967;48.876;2.136;2024-01-30T11:10:18;102870.19;;;32.24;19.79
61086;BME280;46967;48.876;2.136;2024-01-30T11:12:43;102866.75;;;33.57;18.76
61086;BME280;46967;48.876;2.136;2024-01-30T11:15:13;102870.31;;;33.48;18.68
61086;BME280;46967;48.876;2.136;2024-01-30T11:17:59;102871.03;;;32.35;19.44
61086;BME280;46967;48.876;2.136;2024-01-30T11:20:27;102869.47;;;32.22;19.81
61086;BME280;46967;48.876;2.136;2024-01-30T11:22:56;102871.06;;;32.64;19.29
61086;BME280;46967;48.876;2.136;2024-01-30T11:25:23;102863.38;;;34.29;17.48
61086;BME280;46967;48.876;2.136;2024-01-30T11:27:53;102865.38;;;32.57;18.98
61086;BME280;46967;48.876;2.136;2024-01-30T11:30:29;102866.41;;;33.80;17.73
61086;BME280;46967;48.876;2.136;2024-01-30T11:33:11;102865.16;;;33.27;18.39
61086;BME280;46967;48.876;2.136;2024-01-30T11:38:06;102862.22;;;34.68;16.88
61086;BME280;46967;48.876;2.136;2024-01-30T11:40:33;102867.28;;;35.15;16.40
61086;BME280;46967;48.876;2.136;2024-01-30T11:43:00;102877.00;;;34.81;16.68
61086;BME280;46967;48.876;2.136;2024-01-30T11:45:26;102871.50;;;34.19;17.51
61086;BME280;46967;48.876;2.136;2024-01-30T11:47:53;102871.56;;;34.37;17.21
61086;BME280;46967;48.876;2.136;2024-01-30T11:50:18;102876.22;;;35.15;16.40
61086;BME280;46967;48.876;2.136;2024-01-30T11:52:44;102874.75;;;35.90;15.99
61086;BME280;46967;48.876;2.136;2024-01-30T11:55:10;102866.94;;;34.47;17.02
61086;BME280;46967;48.876;2.136;2024-01-30T11:57:35;102869.94;;;34.26;17.33
61086;BME280;46967;48.876;2.136;2024-01-30T12:00:03;102872.69;;;33.14;18.29
61086;BME280;46967;48.876;2.136;2024-01-30T12:02:33;102868.72;;;33.18;18.44
61086;BME280;46967;48.876;2.136;2024-01-30T12:05:04;102867.38;;;35.05;16.67
61086;BME280;46967;48.876;2.136;2024-01-30T12:07:29;102869.91;;;33.06;18.30
61086;BME280;46967;48.876;2.136;2024-01-30T12:09:55;102872.22;;;33.75;17.57
61086;BME280;46967;48.876;2.136;2024-01-30T12:12:25;102869.44;;;34.85;16.63
61086;BME280;46967;48.876;2.136;2024-01-30T12:14:50;102877.00;;;34.81;16.67
61086;BME280;46967;48.876;2.136;2024-01-30T12:17:28;102871.47;;;34.29;16.88
61086;BME280;46967;48.876;2.136;2024-01-30T12:20:07;102874.19;;;34.19;17.28
61086;BME280;46967;48.876;2.136;2024-01-30T12:22:43;102867.94;;;35.43;15.73
61086;BME280;46967;48.876;2.136;2024-01-30T12:25:13;102869.38;;;35.03;16.26
61086;BME280;46967;48.876;2.136;2024-01-30T12:27:40;102866.63;;;35.47;15.90
61086;BME280;46967;48.876;2.136;2024-01-30T12:30:08;102866.16;;;36.19;15.27
61086;BME280;46967;48.876;2.136;2024-01-30T12:32:38;102866.91;;;36.30;15.13
61086;BME280;46967;48.876;2.136;2024-01-30T12:35:07;102870.44;;;36.79;15.10
61086;BME280;46967;48.876;2.136;2024-01-30T12:37:34;102870.94;;;36.58;15.19
61086;BME280;46967;48.876;2.136;2024-01-30T12:39:59;102870.28;;;36.48;15.08
61086;BME280;46967;48.876;2.136;2024-01-30T12:42:26;102868.72;;;35.62;15.94
61086;BME280;46967;48.876;2.136;2024-01-30T12:44:52;102874.41;;;35.24;16.09
61086;BME280;46967;48.876;2.136;2024-01-30T12:47:17;102870.91;;;34.79;16.22
61086;BME280;46967;48.876;2.136;2024-01-30T12:49:43;102876.34;;;36.25;15.06